Portada
METAR-TAF:

METAR-TAF

Aeroports :

Aeroport Internacional Imam Khomeini

Teheran, Iran

latitud: 35-24-58N, longitud: 51-09-08E, altitud: 1007 m

Observació

L'informe es va fer fa 30 minuts, a les 04:00 UTC
Vent 6 kt del Oest
Temperatura 0°C
Humitat 64%
Pressió 1020 hPa
Visibilitat: 9000 m
Escasses núvols a una alçada de 10000 ft
Cel ennuvolat a una alçada de 20000 ft

METAR: OIIE 280400Z 26006KT 9000 FEW100 BKN200 M00/M06 Q1020

Hora: 08:00 (04:30 UTC)

Pronòstic

L'informe es va fer fa 5 hores i 30 minuts, a les 23:00 UTC
Pronòstic vàlid del 28 a les 00 UTC al 29 a les 06 UTC
Vent 6 kt del Oest/Nord-Oest
Visibilitat: 8000 m
Núvols disperses a una alçada de 9000 ft
Evolucionant progressivament
l' 28 a les 18 UTC al 28 a les 20 UTC
Escasses núvols a una alçada de 4000 ft
Cel ennuvolat a una alçada de 9000 ft

TAF: OIIE 272300Z 2800/2906 29006KT 8000 SCT090 BECMG 2818/2820 FEW040 BKN090

Observacions i pronòstics meteorològics de més de 4000 aeroports (METAR i TAF).

Les estacions disponibles són els punts grocs i vermells al mapa.

Posi el ratolí al punt desitjat per veure el nom de l'estació.

Feu clic per veure les observacions i els pronòstics meteorològics.

Per canviar el mapa: feu clic els botons verds amb una creu de color negre per apropar; al botó verd amb un guió per allunyar la imatge; o en les fletxes verdes per a mapes adjacents.


METAR-TAF: